Buena Vista, Argentina
Current Conditions -  °F | °C
As of 6:00 PM on Thursday 23 Oct 2014 (Local Time) from SARC Reporting Station
Clear Clear  
Wind Chill: 90°   Ceiling: Unl
Heat Index: 90°   Visibility: 6mi
Dew Point: 57°   Wind: 7mph
Humidity: 33%   Direction: 70°ENE
Pressure: 29.83"   Gusts: NA
Location:  28.85°S, 58.69°W
Report Text: SARC 232100Z 07006KT 9000 NSC 32/14 Q1010
Loading
Personal Weather Stations






























Interactive Weather Map
Tropical Storm Tracking
New forecast layout! Learn more

10-Day Weather Forecast

Advertisements
Track Severe Weather on mobile